createdAt,value
2022-12-22T00:01:56.016Z,1.80
2022-12-22T00:04:41.233Z,1.90
2022-12-22T00:07:26.738Z,1.90
2022-12-22T00:10:12.167Z,2.00
2022-12-22T00:12:58.129Z,1.97
2022-12-22T00:15:43.796Z,1.70
2022-12-22T00:18:35.589Z,2.00
2022-12-22T00:21:20.838Z,1.73
2022-12-22T00:24:06.340Z,2.03
2022-12-22T00:26:53.293Z,2.17
2022-12-22T00:29:38.726Z,2.60
2022-12-22T00:32:24.301Z,1.90
2022-12-22T00:35:10.650Z,2.03
2022-12-22T00:37:56.683Z,1.83
2022-12-22T00:40:47.216Z,2.17
2022-12-22T00:43:33.056Z,1.77
2022-12-22T00:46:20.468Z,1.80
2022-12-22T00:49:06.481Z,1.83
2022-12-22T00:51:52.402Z,1.67
2022-12-22T00:54:38.842Z,1.70
2022-12-22T00:57:24.224Z,1.90
2022-12-22T01:00:11.002Z,1.70
2022-12-22T01:02:56.594Z,1.70
2022-12-22T01:05:41.946Z,1.70
2022-12-22T01:08:29.428Z,1.50
2022-12-22T01:11:14.859Z,2.03
2022-12-22T01:14:00.150Z,1.67
2022-12-22T01:16:45.671Z,1.57
2022-12-22T01:19:31.121Z,1.70
2022-12-22T01:22:16.637Z,1.80
2022-12-22T01:25:03.178Z,1.73
2022-12-22T01:27:48.512Z,1.80
2022-12-22T01:30:35.630Z,1.57
2022-12-22T01:33:20.839Z,1.90
2022-12-22T01:36:06.118Z,1.83
2022-12-22T01:38:51.286Z,1.30
2022-12-22T01:41:39.935Z,1.73
2022-12-22T01:44:35.844Z,1.63
2022-12-22T01:47:46.216Z,1.70
2022-12-22T01:50:33.272Z,1.63
2022-12-22T01:53:20.339Z,1.77
2022-12-22T01:56:06.245Z,1.67
2022-12-22T01:58:55.909Z,1.77
2022-12-22T02:01:41.458Z,1.90
2022-12-22T02:04:26.836Z,1.90
2022-12-22T02:07:18.337Z,1.83
2022-12-22T02:10:21.498Z,2.00
2022-12-22T02:13:17.453Z,2.10
2022-12-22T02:16:11.984Z,1.80
2022-12-22T02:19:17.571Z,2.10
2022-12-22T02:22:40.226Z,2.30
2022-12-22T02:25:32.722Z,2.37
2022-12-22T02:28:19.984Z,2.27
2022-12-22T02:31:07.085Z,1.93
2022-12-22T02:33:52.303Z,2.10
2022-12-22T02:36:57.654Z,2.60
2022-12-22T02:40:02.110Z,2.00
2022-12-22T02:42:57.691Z,2.10
2022-12-22T02:45:55.277Z,2.20
2022-12-22T02:49:00.741Z,2.10
2022-12-22T02:51:48.314Z,2.00
2022-12-22T02:54:36.003Z,2.10
2022-12-22T02:57:24.411Z,1.60
2022-12-22T03:00:09.875Z,1.90
2022-12-22T03:02:55.535Z,1.80
2022-12-22T03:05:41.035Z,2.20
2022-12-22T03:08:26.413Z,1.73
2022-12-22T03:11:11.803Z,1.90
2022-12-22T03:13:57.323Z,1.80
2022-12-22T03:16:42.956Z,1.90
2022-12-22T03:19:28.305Z,1.90
2022-12-22T03:22:13.640Z,1.57
2022-12-22T03:24:59.038Z,1.90
2022-12-22T03:27:25.623Z,1.53
2022-12-22T03:29:52.208Z,1.57
2022-12-22T03:32:18.801Z,1.80
2022-12-22T03:34:45.377Z,1.50
2022-12-22T03:37:11.979Z,1.50
2022-12-22T03:39:38.608Z,1.50
2022-12-22T03:42:23.862Z,1.50
2022-12-22T03:45:09.263Z,1.27
2022-12-22T03:47:35.859Z,1.63
2022-12-22T03:50:02.465Z,1.47
2022-12-22T03:52:29.070Z,1.37
2022-12-22T03:54:55.650Z,1.20
2022-12-22T03:57:22.289Z,1.40
2022-12-22T03:59:48.935Z,1.30
2022-12-22T04:02:15.636Z,1.67
2022-12-22T04:04:42.323Z,1.83
2022-12-22T04:07:08.955Z,1.30
2022-12-22T04:09:35.546Z,1.60
2022-12-22T04:12:20.888Z,1.47
2022-12-22T04:14:47.468Z,1.20
2022-12-22T04:17:14.045Z,1.43
2022-12-22T04:19:40.629Z,1.47
2022-12-22T04:22:07.406Z,1.53
2022-12-22T04:24:34.064Z,1.20
2022-12-22T04:27:00.666Z,1.40
2022-12-22T04:29:27.260Z,1.43
2022-12-22T04:31:53.902Z,1.50
2022-12-22T04:34:20.572Z,1.77
2022-12-22T04:36:47.141Z,1.37
2022-12-22T04:39:13.756Z,1.50
2022-12-22T04:41:40.341Z,1.50
2022-12-22T04:44:08.093Z,1.20
2022-12-22T04:46:34.749Z,1.43
2022-12-22T04:49:01.332Z,1.40
2022-12-22T04:51:28.807Z,1.50
2022-12-22T04:53:55.776Z,1.20
2022-12-22T04:56:22.426Z,2.00
2022-12-22T04:58:49.027Z,6.00
2022-12-22T05:01:18.433Z,2.47
2022-12-22T05:03:45.488Z,6.20
2022-12-22T05:06:12.477Z,1.90
2022-12-22T05:08:39.257Z,1.60
2022-12-22T05:11:06.581Z,1.60
2022-12-22T05:13:33.520Z,1.60
2022-12-22T05:16:08.272Z,1.60
2022-12-22T05:18:35.990Z,1.27
2022-12-22T05:21:05.897Z,1.50
2022-12-22T05:23:32.537Z,1.53
2022-12-22T05:25:59.158Z,1.90
2022-12-22T05:28:25.801Z,2.07
2022-12-22T05:30:53.373Z,1.80
2022-12-22T05:33:20.777Z,1.77
2022-12-22T05:35:47.517Z,1.60
2022-12-22T05:38:14.137Z,1.70
2022-12-22T05:40:40.768Z,1.17
2022-12-22T05:43:07.405Z,1.70
2022-12-22T05:45:34.028Z,1.60
2022-12-22T05:48:00.707Z,1.67
2022-12-22T05:50:27.612Z,1.70
2022-12-22T05:52:54.684Z,1.50
2022-12-22T05:55:21.289Z,1.80
2022-12-22T05:57:47.877Z,1.30
2022-12-22T06:00:16.313Z,1.53
2022-12-22T06:02:44.181Z,1.80
2022-12-22T06:05:13.067Z,1.67
2022-12-22T06:07:39.692Z,1.60
2022-12-22T06:10:11.893Z,2.10
2022-12-22T06:12:40.728Z,1.60
2022-12-22T06:15:08.732Z,1.60
2022-12-22T06:17:40.441Z,1.80
2022-12-22T06:20:11.414Z,1.50
2022-12-22T06:22:38.129Z,1.90
2022-12-22T06:25:05.204Z,2.60
2022-12-22T06:27:31.830Z,2.37
2022-12-22T06:29:58.455Z,1.90
2022-12-22T06:32:25.098Z,1.97
2022-12-22T06:34:52.319Z,2.03
2022-12-22T06:37:18.949Z,2.23
2022-12-22T06:39:45.549Z,2.33
2022-12-22T06:42:31.060Z,2.03
2022-12-22T06:44:57.630Z,2.50
2022-12-22T06:47:24.261Z,1.93
2022-12-22T06:49:51.339Z,2.20
2022-12-22T06:52:17.984Z,2.40
2022-12-22T06:54:44.606Z,1.90
2022-12-22T06:57:11.194Z,2.47
2022-12-22T06:59:37.768Z,2.47
2022-12-22T07:02:04.628Z,2.50
2022-12-22T07:04:31.650Z,2.67
2022-12-22T07:06:58.277Z,2.20
2022-12-22T07:09:24.862Z,2.80
2022-12-22T07:11:51.498Z,2.17
2022-12-22T07:14:18.079Z,2.40
2022-12-22T07:16:45.665Z,2.90
2022-12-22T07:19:12.598Z,2.03
2022-12-22T07:21:39.201Z,2.87
2022-12-22T07:24:06.305Z,3.00
2022-12-22T07:26:32.910Z,2.30
2022-12-22T07:28:59.557Z,2.47
2022-12-22T07:31:26.160Z,1.93
2022-12-22T07:33:52.743Z,2.10
2022-12-22T07:36:20.473Z,2.57
2022-12-22T07:38:49.677Z,2.27
2022-12-22T07:41:37.258Z,2.57
2022-12-22T07:44:04.816Z,2.13
2022-12-22T07:46:34.408Z,2.90
2022-12-22T07:49:19.636Z,2.63
2022-12-22T07:51:46.394Z,2.57
2022-12-22T07:54:14.528Z,2.50
2022-12-22T07:56:41.724Z,2.60
2022-12-22T07:59:08.648Z,2.40
2022-12-22T08:01:35.429Z,2.00
2022-12-22T08:04:02.265Z,2.43
2022-12-22T08:06:28.868Z,2.10
2022-12-22T08:08:55.541Z,2.00
2022-12-22T08:11:22.201Z,2.20
2022-12-22T08:13:49.828Z,2.43
2022-12-22T08:16:17.835Z,2.20
2022-12-22T08:18:44.552Z,2.37
2022-12-22T08:21:11.146Z,2.23
2022-12-22T08:23:37.941Z,1.93
2022-12-22T08:26:22.008Z,2.63
2022-12-22T08:29:12.760Z,2.00
2022-12-22T08:31:40.705Z,1.93
2022-12-22T08:34:12.511Z,2.60
2022-12-22T08:36:43.553Z,2.67
2022-12-22T08:39:10.820Z,2.20
2022-12-22T08:41:49.903Z,2.03
2022-12-22T08:44:27.911Z,2.00
2022-12-22T08:46:57.171Z,2.43
2022-12-22T08:49:23.963Z,2.80
2022-12-22T08:51:51.265Z,2.20
2022-12-22T08:54:18.319Z,2.10
2022-12-22T08:56:45.479Z,2.23
2022-12-22T08:59:13.326Z,2.53
2022-12-22T09:01:44.752Z,2.20
2022-12-22T09:04:15.784Z,2.27
2022-12-22T09:06:42.461Z,3.03
2022-12-22T09:09:11.152Z,2.77
2022-12-22T09:11:38.507Z,2.40
2022-12-22T09:14:06.862Z,2.93
2022-12-22T09:16:34.540Z,2.40
2022-12-22T09:19:02.245Z,2.10
2022-12-22T09:21:29.905Z,2.20
2022-12-22T09:23:57.733Z,2.57
2022-12-22T09:26:25.937Z,2.53
2022-12-22T09:28:53.418Z,2.53
2022-12-22T09:31:21.862Z,2.43
2022-12-22T09:33:49.196Z,2.03
2022-12-22T09:36:20.140Z,2.43
2022-12-22T09:38:47.227Z,1.90
2022-12-22T09:41:24.007Z,2.30
2022-12-22T09:43:51.354Z,2.60
2022-12-22T09:46:26.598Z,2.67
2022-12-22T09:48:54.692Z,1.83
2022-12-22T09:51:27.081Z,2.23
2022-12-22T09:54:01.546Z,2.87
2022-12-22T09:56:29.603Z,1.87
2022-12-22T09:58:57.092Z,2.47
2022-12-22T10:01:32.965Z,2.20
2022-12-22T10:04:12.512Z,2.40
2022-12-22T10:06:50.449Z,2.30
2022-12-22T10:09:48.758Z,1.97
2022-12-22T10:12:18.849Z,2.03
2022-12-22T10:14:48.590Z,1.93
2022-12-22T10:17:20.307Z,2.00
2022-12-22T10:19:48.472Z,2.20
2022-12-22T10:22:38.063Z,2.40
2022-12-22T10:25:05.969Z,2.70
2022-12-22T10:27:41.918Z,1.70
2022-12-22T10:30:26.347Z,1.83
2022-12-22T10:33:33.505Z,2.00
2022-12-22T10:36:00.397Z,3.90
2022-12-22T10:38:32.908Z,2.43
2022-12-22T10:41:20.214Z,2.47
2022-12-22T10:43:56.344Z,2.13
2022-12-22T10:46:38.621Z,1.83
2022-12-22T10:52:30.603Z,1.70
2022-12-22T10:55:20.480Z,2.20
2022-12-22T10:57:47.591Z,1.90
2022-12-22T11:00:27.045Z,2.13
2022-12-22T11:02:58.586Z,1.63
2022-12-22T11:05:25.736Z,2.15
2022-12-22T11:07:52.601Z,2.33
2022-12-22T11:10:47.130Z,2.40
2022-12-22T11:13:25.540Z,1.80
2022-12-22T11:16:02.472Z,1.40
2022-12-22T11:18:56.331Z,1.73
2022-12-22T11:21:36.290Z,1.63
2022-12-22T11:24:15.250Z,1.83
2022-12-22T11:27:05.064Z,1.50
2022-12-22T11:30:08.963Z,1.63
2022-12-22T11:33:02.417Z,1.57
2022-12-22T11:35:56.631Z,1.20
2022-12-22T11:38:32.036Z,1.37
2022-12-22T11:41:14.943Z,1.50
2022-12-22T11:43:52.864Z,1.10
2022-12-22T11:46:36.680Z,1.30
2022-12-22T11:49:20.200Z,1.57
2022-12-22T11:51:51.583Z,1.40
2022-12-22T11:54:41.703Z,1.47
2022-12-22T11:57:33.678Z,1.50
2022-12-22T12:00:04.419Z,1.23
2022-12-22T12:03:04.782Z,1.60
2022-12-22T12:06:00.672Z,1.43
2022-12-22T12:09:03.638Z,1.30
2022-12-22T12:11:47.457Z,1.40
2022-12-22T12:14:30.213Z,1.40
2022-12-22T12:17:17.610Z,1.30
2022-12-22T12:20:19.098Z,1.27
2022-12-22T12:22:46.111Z,1.47
2022-12-22T12:25:31.325Z,1.17
2022-12-22T12:28:06.949Z,1.43
2022-12-22T12:30:47.803Z,1.13
2022-12-22T12:33:23.671Z,1.23
2022-12-22T12:35:54.729Z,1.47
2022-12-22T12:41:27.188Z,1.13
2022-12-22T12:43:55.142Z,1.70
2022-12-22T12:46:53.166Z,1.47
2022-12-22T12:49:37.617Z,1.90
2022-12-22T12:52:11.588Z,1.50
2022-12-22T12:54:42.694Z,1.27
2022-12-22T12:57:28.699Z,1.50
2022-12-22T12:59:57.443Z,1.60
2022-12-22T13:02:27.726Z,1.67
2022-12-22T13:05:13.356Z,1.47
2022-12-22T13:07:59.196Z,1.30
2022-12-22T13:10:26.544Z,1.70
2022-12-22T13:12:54.814Z,1.80
2022-12-22T13:15:32.952Z,1.83
2022-12-22T13:18:00.762Z,1.70
2022-12-22T13:20:30.958Z,1.47
2022-12-22T13:22:58.964Z,1.43
2022-12-22T13:25:27.581Z,1.40
2022-12-22T13:27:55.852Z,1.23
2022-12-22T13:30:23.120Z,2.00
2022-12-22T13:32:50.781Z,1.50
2022-12-22T13:35:31.077Z,1.83
2022-12-22T13:37:59.351Z,1.30
2022-12-22T13:40:46.687Z,1.30
2022-12-22T13:43:15.712Z,1.70
2022-12-22T13:45:44.760Z,1.30
2022-12-22T13:48:20.397Z,1.23
2022-12-22T13:50:52.032Z,1.50
2022-12-22T13:53:58.630Z,1.40
2022-12-22T13:56:17.719Z,1.80
2022-12-22T13:58:45.855Z,1.87
2022-12-22T14:01:12.970Z,1.40
2022-12-22T14:04:02.577Z,1.80
2022-12-22T14:06:40.272Z,1.67
2022-12-22T14:09:15.235Z,1.70
2022-12-22T14:11:49.113Z,2.05
2022-12-22T14:14:26.824Z,1.90
2022-12-22T14:16:56.129Z,2.10
2022-12-22T14:19:24.613Z,2.10
2022-12-22T14:21:59.285Z,2.13
2022-12-22T14:24:29.282Z,2.00
2022-12-22T14:26:59.209Z,2.30
2022-12-22T14:29:27.885Z,2.13
2022-12-22T14:31:56.178Z,2.47
2022-12-22T14:34:30.555Z,2.40
2022-12-22T14:37:00.427Z,2.27
2022-12-22T14:39:33.039Z,2.20
2022-12-22T14:42:13.762Z,2.30
2022-12-22T14:44:46.202Z,2.27
2022-12-22T14:47:15.046Z,2.47
2022-12-22T14:50:03.056Z,2.60
2022-12-22T14:52:37.539Z,2.90
2022-12-22T14:55:06.487Z,2.57
2022-12-22T14:57:39.389Z,2.63
2022-12-22T15:00:27.493Z,2.83
2022-12-22T15:03:00.551Z,3.00
2022-12-22T15:05:28.827Z,2.57
2022-12-22T15:08:07.464Z,2.63
2022-12-22T15:10:44.047Z,3.00
2022-12-22T15:13:18.483Z,3.47
2022-12-22T15:15:45.197Z,2.50
2022-12-22T15:18:15.083Z,2.80
2022-12-22T15:20:42.046Z,2.97
2022-12-22T15:23:14.346Z,2.50
2022-12-22T15:25:41.077Z,3.00
2022-12-22T15:28:07.745Z,2.80
2022-12-22T15:30:34.619Z,2.53
2022-12-22T15:33:01.338Z,2.70
2022-12-22T15:35:30.950Z,2.57
2022-12-22T15:37:57.943Z,2.97
2022-12-22T15:40:25.933Z,3.40
2022-12-22T15:42:53.044Z,2.90
2022-12-22T15:45:21.953Z,2.80
2022-12-22T15:47:51.916Z,2.50
2022-12-22T15:50:28.558Z,2.90
2022-12-22T15:52:57.914Z,3.10
2022-12-22T15:55:25.482Z,2.47
2022-12-22T15:57:56.445Z,2.90
2022-12-22T16:00:23.578Z,3.10
2022-12-22T16:02:50.852Z,2.20
2022-12-22T16:05:18.482Z,2.55
2022-12-22T16:07:45.267Z,2.10
2022-12-22T16:10:23.579Z,2.40
2022-12-22T16:12:55.492Z,3.23
2022-12-22T16:15:22.589Z,2.57
2022-12-22T16:17:51.644Z,2.40
2022-12-22T16:20:18.829Z,3.43
2022-12-22T16:22:45.434Z,2.50
2022-12-22T16:25:16.035Z,2.60
2022-12-22T16:27:42.973Z,2.67
2022-12-22T16:30:18.590Z,2.57
2022-12-22T16:32:45.932Z,2.80
2022-12-22T16:35:16.931Z,2.57
2022-12-22T16:37:43.768Z,3.07
2022-12-22T16:40:11.811Z,2.80
2022-12-22T16:45:28.600Z,2.73
2022-12-22T16:47:59.732Z,3.17
2022-12-22T16:50:32.931Z,3.13
2022-12-22T16:53:05.053Z,2.87
2022-12-22T16:55:33.393Z,3.07
2022-12-22T16:57:59.984Z,3.43
2022-12-22T17:00:34.404Z,3.03
2022-12-22T17:03:12.435Z,2.80
2022-12-22T17:05:54.643Z,2.90
2022-12-22T17:08:39.193Z,2.60
2022-12-22T17:11:11.387Z,3.20
2022-12-22T17:13:39.002Z,3.87
2022-12-22T17:16:05.844Z,3.13
2022-12-22T17:18:33.203Z,3.40
2022-12-22T17:21:00.753Z,3.72
2022-12-22T17:23:34.800Z,3.70
2022-12-22T17:26:05.609Z,3.40
2022-12-22T17:28:33.567Z,3.63
2022-12-22T17:31:00.321Z,4.00
2022-12-22T17:33:27.058Z,3.27
2022-12-22T17:35:54.329Z,3.67
2022-12-22T17:38:24.476Z,4.70
2022-12-22T17:40:51.310Z,3.57
2022-12-22T17:43:19.793Z,3.97
2022-12-22T17:45:47.473Z,3.93
2022-12-22T17:48:15.465Z,3.63
2022-12-22T17:50:43.999Z,4.00
2022-12-22T17:53:14.881Z,3.47
2022-12-22T17:58:29.157Z,4.07
2022-12-22T18:00:55.782Z,3.50
2022-12-22T18:03:22.512Z,4.17
2022-12-22T18:05:49.482Z,4.07
2022-12-22T18:08:19.597Z,3.70
2022-12-22T18:10:47.713Z,4.23
2022-12-22T18:13:19.236Z,3.57
2022-12-22T18:15:46.021Z,4.33
2022-12-22T18:18:14.494Z,3.70
2022-12-22T18:20:42.091Z,4.30
2022-12-22T18:23:23.745Z,4.83
2022-12-22T18:25:50.725Z,4.87
2022-12-22T18:28:17.747Z,4.00
2022-12-22T18:30:45.219Z,4.00
2022-12-22T18:33:12.087Z,4.20
2022-12-22T18:35:39.635Z,4.60
2022-12-22T18:38:06.775Z,4.88
2022-12-22T18:40:38.327Z,5.20
2022-12-22T18:43:13.103Z,5.10
2022-12-22T18:45:39.754Z,4.20
2022-12-22T18:48:06.467Z,5.20
2022-12-22T18:50:34.136Z,4.47
2022-12-22T18:53:06.150Z,4.07
2022-12-22T18:55:33.351Z,4.40
2022-12-22T18:58:00.637Z,4.87
2022-12-22T19:00:30.780Z,4.93
2022-12-22T19:02:59.446Z,4.70
2022-12-22T19:05:32.057Z,4.47
2022-12-22T19:07:59.321Z,4.50
2022-12-22T19:10:41.154Z,4.27
2022-12-22T19:13:18.676Z,4.88
2022-12-22T19:15:45.359Z,4.47
2022-12-22T19:18:22.624Z,4.23
2022-12-22T19:20:53.327Z,3.80
2022-12-22T19:23:22.679Z,4.27
2022-12-22T19:25:53.958Z,4.07
2022-12-22T19:28:26.412Z,4.70
2022-12-22T19:30:53.471Z,4.60
2022-12-22T19:33:30.338Z,5.60
2022-12-22T19:35:57.999Z,8.87
2022-12-22T19:38:26.217Z,8.97
2022-12-22T19:40:55.891Z,4.47
2022-12-22T19:43:22.551Z,4.13
2022-12-22T19:45:52.885Z,4.20
2022-12-22T19:48:25.815Z,4.50
2022-12-22T19:50:54.020Z,3.63
2022-12-22T19:53:21.652Z,3.90
2022-12-22T19:55:53.802Z,3.80
2022-12-22T19:58:27.418Z,3.73
2022-12-22T20:00:54.734Z,2.97
2022-12-22T20:03:24.401Z,3.73
2022-12-22T20:05:51.853Z,3.90
2022-12-22T20:08:18.679Z,3.47
2022-12-22T20:10:46.240Z,4.40
2022-12-22T20:13:18.585Z,3.23
2022-12-22T20:15:45.740Z,3.87
2022-12-22T20:18:23.811Z,3.93
2022-12-22T20:20:57.913Z,3.47
2022-12-22T20:23:25.756Z,3.47
2022-12-22T20:25:59.819Z,3.67
2022-12-22T20:28:32.644Z,3.33
2022-12-22T20:30:59.903Z,3.77
2022-12-22T20:33:27.001Z,2.60
2022-12-22T20:35:55.343Z,3.65
2022-12-22T20:38:31.204Z,3.97
2022-12-22T20:40:57.846Z,3.30
2022-12-22T20:43:26.521Z,3.27
2022-12-22T20:45:56.947Z,3.77
2022-12-22T20:48:33.567Z,3.43
2022-12-22T20:51:01.748Z,3.33
2022-12-22T20:53:28.611Z,3.20
2022-12-22T20:55:55.810Z,3.50
2022-12-22T20:58:24.279Z,3.70
2022-12-22T21:00:53.219Z,3.47
2022-12-22T21:03:19.956Z,2.83
2022-12-22T21:05:47.757Z,3.33
2022-12-22T21:08:25.798Z,3.33
2022-12-22T21:10:54.515Z,2.63
2022-12-22T21:13:21.816Z,3.20
2022-12-22T21:15:52.245Z,2.83
2022-12-22T21:18:23.733Z,2.57
2022-12-22T21:20:51.542Z,2.90
2022-12-22T21:23:18.192Z,2.30
2022-12-22T21:25:48.839Z,2.60
2022-12-22T21:28:31.166Z,1.93
2022-12-22T21:30:58.092Z,2.23
2022-12-22T21:33:24.772Z,1.90
2022-12-22T21:35:53.195Z,2.13
2022-12-22T21:38:22.326Z,2.03
2022-12-22T21:40:48.978Z,1.83
2022-12-22T21:43:16.755Z,1.90
2022-12-22T21:45:44.645Z,1.57
2022-12-22T21:48:13.288Z,2.27
2022-12-22T21:50:40.608Z,1.87
2022-12-22T21:53:07.655Z,2.27
2022-12-22T21:55:36.499Z,2.35
2022-12-22T21:58:04.564Z,2.50
2022-12-22T22:00:32.822Z,2.23
2022-12-22T22:03:01.067Z,2.43
2022-12-22T22:05:36.294Z,2.00
2022-12-22T22:08:05.534Z,2.27
2022-12-22T22:10:37.695Z,2.40
2022-12-22T22:13:05.060Z,1.97
2022-12-22T22:15:32.630Z,2.10
2022-12-22T22:18:06.196Z,2.90
2022-12-22T22:20:33.859Z,2.80
2022-12-22T22:23:00.574Z,2.97
2022-12-22T22:25:27.832Z,2.40
2022-12-22T22:27:59.365Z,2.73
2022-12-22T22:30:26.308Z,2.43
2022-12-22T22:32:53.927Z,2.83
2022-12-22T22:35:21.070Z,2.80
2022-12-22T22:37:50.645Z,2.53
2022-12-22T22:40:20.185Z,2.07
2022-12-22T22:42:47.158Z,2.37
2022-12-22T22:45:16.556Z,1.87
2022-12-22T22:47:43.141Z,2.30
2022-12-22T22:50:10.030Z,2.17
2022-12-22T22:52:37.044Z,3.17
2022-12-22T22:55:04.035Z,2.03
2022-12-22T22:57:30.727Z,2.77
2022-12-22T22:59:57.334Z,2.83
2022-12-22T23:02:24.216Z,2.50
2022-12-22T23:04:51.004Z,2.40
2022-12-22T23:07:17.715Z,2.70
2022-12-22T23:09:44.476Z,2.13
2022-12-22T23:12:11.189Z,2.60
2022-12-22T23:14:37.801Z,2.67
2022-12-22T23:17:04.581Z,2.27
2022-12-22T23:19:31.214Z,1.90
2022-12-22T23:21:57.996Z,1.90
2022-12-22T23:24:24.643Z,2.20
2022-12-22T23:26:51.566Z,2.20
2022-12-22T23:29:18.311Z,2.20
2022-12-22T23:31:44.973Z,1.97
2022-12-22T23:34:12.515Z,2.20
2022-12-22T23:36:39.374Z,1.70
2022-12-22T23:39:06.335Z,1.73
2022-12-22T23:41:33.095Z,1.67
2022-12-22T23:43:59.677Z,1.73
2022-12-22T23:46:26.387Z,1.80
2022-12-22T23:48:54.929Z,1.80
2022-12-22T23:51:23.799Z,2.27
2022-12-22T23:53:50.582Z,2.00
2022-12-22T23:56:17.249Z,1.80
2022-12-22T23:58:44.774Z,1.90
